sensor_id;sensor_type;location;lat;lon;timestamp;P1;durP1;ratioP1;P2;durP2;ratioP2
63943;SDS011;50121;51.218;7.664;2023-02-23T00:00:32;43.33;;;25.80;;
63943;SDS011;50121;51.218;7.664;2023-02-23T00:03:00;39.55;;;25.85;;
63943;SDS011;50121;51.218;7.664;2023-02-23T00:05:29;45.50;;;26.40;;
63943;SDS011;50121;51.218;7.664;2023-02-23T00:07:57;39.42;;;25.42;;
63943;SDS011;50121;51.218;7.664;2023-02-23T00:10:25;40.05;;;24.17;;
63943;SDS011;50121;51.218;7.664;2023-02-23T00:12:56;37.05;;;23.77;;
63943;SDS011;50121;51.218;7.664;2023-02-23T00:15:27;38.75;;;25.25;;
63943;SDS011;50121;51.218;7.664;2023-02-23T00:17:56;37.55;;;25.15;;
63943;SDS011;50121;51.218;7.664;2023-02-23T00:20:24;39.92;;;24.88;;
63943;SDS011;50121;51.218;7.664;2023-02-23T00:22:55;39.40;;;24.75;;
63943;SDS011;50121;51.218;7.664;2023-02-23T00:25:24;41.08;;;25.83;;
63943;SDS011;50121;51.218;7.664;2023-02-23T00:27:51;42.75;;;25.73;;
63943;SDS011;50121;51.218;7.664;2023-02-23T00:30:21;40.55;;;25.73;;
63943;SDS011;50121;51.218;7.664;2023-02-23T00:32:49;41.15;;;26.17;;
63943;SDS011;50121;51.218;7.664;2023-02-23T00:35:18;41.28;;;25.98;;
63943;SDS011;50121;51.218;7.664;2023-02-23T00:37:46;41.33;;;26.73;;
63943;SDS011;50121;51.218;7.664;2023-02-23T00:40:14;41.28;;;25.90;;
63943;SDS011;50121;51.218;7.664;2023-02-23T00:42:43;40.22;;;26.60;;
63943;SDS011;50121;51.218;7.664;2023-02-23T00:45:11;41.88;;;26.75;;
63943;SDS011;50121;51.218;7.664;2023-02-23T00:47:42;43.33;;;26.75;;
63943;SDS011;50121;51.218;7.664;2023-02-23T00:50:12;40.65;;;26.55;;
63943;SDS011;50121;51.218;7.664;2023-02-23T00:52:41;43.97;;;26.40;;
63943;SDS011;50121;51.218;7.664;2023-02-23T00:55:09;42.10;;;27.13;;
63943;SDS011;50121;51.218;7.664;2023-02-23T00:57:38;42.65;;;25.63;;
63943;SDS011;50121;51.218;7.664;2023-02-23T01:00:09;43.60;;;26.92;;
63943;SDS011;50121;51.218;7.664;2023-02-23T01:02:48;45.92;;;27.80;;
63943;SDS011;50121;51.218;7.664;2023-02-23T01:05:15;43.92;;;26.48;;
63943;SDS011;50121;51.218;7.664;2023-02-23T01:07:43;42.83;;;25.73;;
63943;SDS011;50121;51.218;7.664;2023-02-23T01:10:12;43.70;;;26.83;;
63943;SDS011;50121;51.218;7.664;2023-02-23T01:12:50;46.92;;;26.90;;
63943;SDS011;50121;51.218;7.664;2023-02-23T01:15:18;46.15;;;26.40;;
63943;SDS011;50121;51.218;7.664;2023-02-23T01:17:46;41.60;;;26.20;;
63943;SDS011;50121;51.218;7.664;2023-02-23T01:20:15;42.95;;;26.25;;
63943;SDS011;50121;51.218;7.664;2023-02-23T01:22:47;41.50;;;25.67;;
63943;SDS011;50121;51.218;7.664;2023-02-23T01:25:15;43.35;;;26.55;;
63943;SDS011;50121;51.218;7.664;2023-02-23T01:27:43;47.28;;;26.77;;
63943;SDS011;50121;51.218;7.664;2023-02-23T01:30:12;46.40;;;26.63;;
63943;SDS011;50121;51.218;7.664;2023-02-23T01:32:41;44.35;;;26.75;;
63943;SDS011;50121;51.218;7.664;2023-02-23T01:35:10;44.75;;;25.88;;
63943;SDS011;50121;51.218;7.664;2023-02-23T01:37:39;46.40;;;27.13;;
63943;SDS011;50121;51.218;7.664;2023-02-23T01:40:11;43.45;;;27.08;;
63943;SDS011;50121;51.218;7.664;2023-02-23T01:42:42;43.92;;;26.08;;
63943;SDS011;50121;51.218;7.664;2023-02-23T01:47:43;47.92;;;26.73;;
63943;SDS011;50121;51.218;7.664;2023-02-23T01:50:11;45.92;;;26.13;;
63943;SDS011;50121;51.218;7.664;2023-02-23T01:52:43;44.30;;;26.25;;
63943;SDS011;50121;51.218;7.664;2023-02-23T01:55:11;42.78;;;25.50;;
63943;SDS011;50121;51.218;7.664;2023-02-23T01:57:39;44.80;;;26.80;;
63943;SDS011;50121;51.218;7.664;2023-02-23T02:00:08;42.63;;;26.23;;
63943;SDS011;50121;51.218;7.664;2023-02-23T02:02:40;42.53;;;25.20;;
63943;SDS011;50121;51.218;7.664;2023-02-23T02:05:08;44.35;;;26.25;;
63943;SDS011;50121;51.218;7.664;2023-02-23T02:07:41;44.88;;;25.08;;
63943;SDS011;50121;51.218;7.664;2023-02-23T02:10:12;44.97;;;25.83;;
63943;SDS011;50121;51.218;7.664;2023-02-23T02:12:41;44.60;;;26.40;;
63943;SDS011;50121;51.218;7.664;2023-02-23T02:15:09;41.15;;;25.48;;
63943;SDS011;50121;51.218;7.664;2023-02-23T02:25:55;45.50;;;25.80;;
63943;SDS011;50121;51.218;7.664;2023-02-23T02:28:26;45.10;;;26.70;;
63943;SDS011;50121;51.218;7.664;2023-02-23T02:31:10;47.60;;;26.95;;
63943;SDS011;50121;51.218;7.664;2023-02-23T02:41:18;48.03;;;26.60;;
63943;SDS011;50121;51.218;7.664;2023-02-23T02:46:26;43.75;;;26.45;;
63943;SDS011;50121;51.218;7.664;2023-02-23T02:52:02;43.05;;;26.63;;
63943;SDS011;50121;51.218;7.664;2023-02-23T02:57:02;46.10;;;26.83;;
63943;SDS011;50121;51.218;7.664;2023-02-23T02:59:31;44.10;;;26.40;;
63943;SDS011;50121;51.218;7.664;2023-02-23T03:02:27;42.45;;;25.10;;
63943;SDS011;50121;51.218;7.664;2023-02-23T03:05:15;45.17;;;26.58;;
63943;SDS011;50121;51.218;7.664;2023-02-23T03:08:05;46.30;;;26.20;;
63943;SDS011;50121;51.218;7.664;2023-02-23T03:11:07;43.78;;;26.15;;
63943;SDS011;50121;51.218;7.664;2023-02-23T03:14:16;44.03;;;25.98;;
63943;SDS011;50121;51.218;7.664;2023-02-23T03:26:22;42.75;;;25.48;;
63943;SDS011;50121;51.218;7.664;2023-02-23T03:29:24;45.80;;;25.55;;
63943;SDS011;50121;51.218;7.664;2023-02-23T03:32:34;47.17;;;25.40;;
63943;SDS011;50121;51.218;7.664;2023-02-23T03:38:10;41.38;;;25.55;;
63943;SDS011;50121;51.218;7.664;2023-02-23T03:40:58;41.45;;;25.48;;
63943;SDS011;50121;51.218;7.664;2023-02-23T03:43:50;43.95;;;25.17;;
63943;SDS011;50121;51.218;7.664;2023-02-23T03:46:38;39.20;;;24.55;;
63943;SDS011;50121;51.218;7.664;2023-02-23T03:49:26;43.60;;;25.40;;
63943;SDS011;50121;51.218;7.664;2023-02-23T03:52:15;96.75;;;55.88;;
63943;SDS011;50121;51.218;7.664;2023-02-23T03:55:04;65.47;;;36.92;;
63943;SDS011;50121;51.218;7.664;2023-02-23T03:57:55;43.38;;;25.95;;
63943;SDS011;50121;51.218;7.664;2023-02-23T04:00:46;45.53;;;26.40;;
63943;SDS011;50121;51.218;7.664;2023-02-23T04:03:34;42.20;;;24.63;;
63943;SDS011;50121;51.218;7.664;2023-02-23T04:06:22;42.53;;;25.13;;
63943;SDS011;50121;51.218;7.664;2023-02-23T04:09:10;44.83;;;25.92;;
63943;SDS011;50121;51.218;7.664;2023-02-23T04:11:58;42.15;;;25.00;;
63943;SDS011;50121;51.218;7.664;2023-02-23T04:14:56;45.30;;;25.58;;
63943;SDS011;50121;51.218;7.664;2023-02-23T04:17:26;38.05;;;24.00;;
63943;SDS011;50121;51.218;7.664;2023-02-23T04:19:54;39.38;;;24.40;;
63943;SDS011;50121;51.218;7.664;2023-02-23T04:22:22;41.33;;;24.90;;
63943;SDS011;50121;51.218;7.664;2023-02-23T04:24:50;39.88;;;24.38;;
63943;SDS011;50121;51.218;7.664;2023-02-23T04:27:17;40.55;;;25.08;;
63943;SDS011;50121;51.218;7.664;2023-02-23T04:29:45;40.55;;;25.08;;
63943;SDS011;50121;51.218;7.664;2023-02-23T04:32:14;63.50;;;40.25;;
63943;SDS011;50121;51.218;7.664;2023-02-23T04:34:42;72.88;;;42.90;;
63943;SDS011;50121;51.218;7.664;2023-02-23T04:37:09;45.85;;;27.60;;
63943;SDS011;50121;51.218;7.664;2023-02-23T04:39:37;42.70;;;25.55;;
63943;SDS011;50121;51.218;7.664;2023-02-23T04:42:05;38.65;;;24.02;;
63943;SDS011;50121;51.218;7.664;2023-02-23T04:44:32;40.28;;;24.88;;
63943;SDS011;50121;51.218;7.664;2023-02-23T04:47:00;41.97;;;25.63;;
63943;SDS011;50121;51.218;7.664;2023-02-23T04:49:27;45.20;;;25.60;;
63943;SDS011;50121;51.218;7.664;2023-02-23T04:51:55;48.97;;;27.58;;
63943;SDS011;50121;51.218;7.664;2023-02-23T04:54:23;40.05;;;24.77;;
63943;SDS011;50121;51.218;7.664;2023-02-23T04:56:50;43.70;;;24.42;;
63943;SDS011;50121;51.218;7.664;2023-02-23T04:59:18;38.78;;;24.63;;
63943;SDS011;50121;51.218;7.664;2023-02-23T05:01:45;40.20;;;24.52;;
63943;SDS011;50121;51.218;7.664;2023-02-23T05:04:13;39.05;;;24.55;;
63943;SDS011;50121;51.218;7.664;2023-02-23T05:06:40;40.13;;;24.65;;
63943;SDS011;50121;51.218;7.664;2023-02-23T05:09:08;43.47;;;27.02;;
63943;SDS011;50121;51.218;7.664;2023-02-23T05:11:36;70.15;;;41.22;;
63943;SDS011;50121;51.218;7.664;2023-02-23T05:14:03;45.75;;;27.70;;
63943;SDS011;50121;51.218;7.664;2023-02-23T05:16:31;37.92;;;24.63;;
63943;SDS011;50121;51.218;7.664;2023-02-23T05:18:59;35.83;;;23.40;;
63943;SDS011;50121;51.218;7.664;2023-02-23T05:21:27;38.42;;;24.52;;
63943;SDS011;50121;51.218;7.664;2023-02-23T05:23:54;56.90;;;35.65;;
63943;SDS011;50121;51.218;7.664;2023-02-23T05:26:22;43.60;;;26.10;;
63943;SDS011;50121;51.218;7.664;2023-02-23T05:28:51;45.75;;;28.67;;
63943;SDS011;50121;51.218;7.664;2023-02-23T05:31:19;46.25;;;28.50;;
63943;SDS011;50121;51.218;7.664;2023-02-23T05:33:47;43.13;;;27.27;;
63943;SDS011;50121;51.218;7.664;2023-02-23T05:36:16;40.65;;;25.45;;
63943;SDS011;50121;51.218;7.664;2023-02-23T05:38:44;40.40;;;24.10;;
63943;SDS011;50121;51.218;7.664;2023-02-23T05:41:13;47.53;;;25.35;;
63943;SDS011;50121;51.218;7.664;2023-02-23T05:43:41;42.20;;;24.08;;
63943;SDS011;50121;51.218;7.664;2023-02-23T05:46:19;35.65;;;23.42;;
63943;SDS011;50121;51.218;7.664;2023-02-23T05:48:47;32.75;;;21.73;;
63943;SDS011;50121;51.218;7.664;2023-02-23T05:51:16;36.50;;;21.83;;
63943;SDS011;50121;51.218;7.664;2023-02-23T05:53:45;31.75;;;21.35;;
63943;SDS011;50121;51.218;7.664;2023-02-23T05:56:16;31.58;;;21.35;;
63943;SDS011;50121;51.218;7.664;2023-02-23T05:58:47;30.60;;;21.13;;
63943;SDS011;50121;51.218;7.664;2023-02-23T06:01:14;30.50;;;20.70;;
63943;SDS011;50121;51.218;7.664;2023-02-23T06:03:44;34.85;;;20.98;;
63943;SDS011;50121;51.218;7.664;2023-02-23T06:06:11;31.67;;;20.85;;
63943;SDS011;50121;51.218;7.664;2023-02-23T06:08:42;32.47;;;21.48;;
63943;SDS011;50121;51.218;7.664;2023-02-23T06:11:10;31.40;;;21.38;;
63943;SDS011;50121;51.218;7.664;2023-02-23T06:13:38;25.15;;;17.55;;
63943;SDS011;50121;51.218;7.664;2023-02-23T06:16:06;25.67;;;18.55;;
63943;SDS011;50121;51.218;7.664;2023-02-23T06:18:34;29.13;;;19.48;;
63943;SDS011;50121;51.218;7.664;2023-02-23T06:21:01;41.45;;;26.52;;
63943;SDS011;50121;51.218;7.664;2023-02-23T06:23:30;35.72;;;22.38;;
63943;SDS011;50121;51.218;7.664;2023-02-23T06:25:58;34.22;;;21.90;;
63943;SDS011;50121;51.218;7.664;2023-02-23T06:28:26;39.67;;;23.90;;
63943;SDS011;50121;51.218;7.664;2023-02-23T06:30:57;37.97;;;22.50;;
63943;SDS011;50121;51.218;7.664;2023-02-23T06:33:24;35.70;;;21.95;;
63943;SDS011;50121;51.218;7.664;2023-02-23T06:35:53;36.22;;;21.73;;
63943;SDS011;50121;51.218;7.664;2023-02-23T06:38:21;40.40;;;23.05;;
63943;SDS011;50121;51.218;7.664;2023-02-23T06:40:49;37.33;;;21.67;;
63943;SDS011;50121;51.218;7.664;2023-02-23T06:43:17;37.42;;;21.77;;
63943;SDS011;50121;51.218;7.664;2023-02-23T06:45:45;41.58;;;24.42;;
63943;SDS011;50121;51.218;7.664;2023-02-23T06:48:13;42.08;;;24.27;;
63943;SDS011;50121;51.218;7.664;2023-02-23T06:50:40;42.40;;;23.95;;
63943;SDS011;50121;51.218;7.664;2023-02-23T06:53:09;45.03;;;24.92;;
63943;SDS011;50121;51.218;7.664;2023-02-23T06:55:36;42.85;;;25.13;;
63943;SDS011;50121;51.218;7.664;2023-02-23T06:58:04;39.75;;;23.67;;
63943;SDS011;50121;51.218;7.664;2023-02-23T07:00:33;38.75;;;23.15;;
63943;SDS011;50121;51.218;7.664;2023-02-23T07:03:01;41.30;;;23.85;;
63943;SDS011;50121;51.218;7.664;2023-02-23T07:05:28;42.15;;;23.13;;
63943;SDS011;50121;51.218;7.664;2023-02-23T07:07:56;43.03;;;24.10;;
63943;SDS011;50121;51.218;7.664;2023-02-23T07:10:23;37.47;;;22.80;;
63943;SDS011;50121;51.218;7.664;2023-02-23T07:12:52;39.25;;;23.02;;
63943;SDS011;50121;51.218;7.664;2023-02-23T07:15:20;40.63;;;23.35;;
63943;SDS011;50121;51.218;7.664;2023-02-23T07:17:47;41.90;;;23.83;;
63943;SDS011;50121;51.218;7.664;2023-02-23T07:20:17;40.08;;;22.30;;
63943;SDS011;50121;51.218;7.664;2023-02-23T07:22:45;50.50;;;30.65;;
63943;SDS011;50121;51.218;7.664;2023-02-23T07:25:12;46.63;;;27.52;;
63943;SDS011;50121;51.218;7.664;2023-02-23T07:27:40;39.78;;;22.25;;
63943;SDS011;50121;51.218;7.664;2023-02-23T07:30:08;36.75;;;21.33;;
63943;SDS011;50121;51.218;7.664;2023-02-23T07:32:36;33.45;;;20.10;;
63943;SDS011;50121;51.218;7.664;2023-02-23T07:35:03;29.33;;;19.30;;
63943;SDS011;50121;51.218;7.664;2023-02-23T07:37:31;30.00;;;19.10;;
63943;SDS011;50121;51.218;7.664;2023-02-23T07:39:59;30.45;;;18.75;;
63943;SDS011;50121;51.218;7.664;2023-02-23T07:42:27;28.23;;;18.38;;
63943;SDS011;50121;51.218;7.664;2023-02-23T07:44:55;29.98;;;18.95;;
63943;SDS011;50121;51.218;7.664;2023-02-23T07:47:22;29.27;;;18.30;;
63943;SDS011;50121;51.218;7.664;2023-02-23T07:49:57;29.02;;;18.48;;
63943;SDS011;50121;51.218;7.664;2023-02-23T07:52:25;30.10;;;18.63;;
63943;SDS011;50121;51.218;7.664;2023-02-23T07:54:53;27.20;;;18.00;;
63943;SDS011;50121;51.218;7.664;2023-02-23T07:57:20;27.75;;;18.00;;
63943;SDS011;50121;51.218;7.664;2023-02-23T07:59:50;30.17;;;18.67;;
63943;SDS011;50121;51.218;7.664;2023-02-23T08:02:17;27.73;;;18.40;;
63943;SDS011;50121;51.218;7.664;2023-02-23T08:04:45;30.00;;;18.20;;
63943;SDS011;50121;51.218;7.664;2023-02-23T08:07:13;30.80;;;18.55;;
63943;SDS011;50121;51.218;7.664;2023-02-23T08:09:41;30.27;;;18.90;;
63943;SDS011;50121;51.218;7.664;2023-02-23T08:12:08;29.48;;;17.92;;
63943;SDS011;50121;51.218;7.664;2023-02-23T08:14:36;29.27;;;17.90;;
63943;SDS011;50121;51.218;7.664;2023-02-23T08:17:03;30.23;;;19.40;;
63943;SDS011;50121;51.218;7.664;2023-02-23T08:19:31;27.48;;;18.05;;
63943;SDS011;50121;51.218;7.664;2023-02-23T08:21:59;28.52;;;18.52;;
63943;SDS011;50121;51.218;7.664;2023-02-23T08:24:27;29.02;;;17.85;;
63943;SDS011;50121;51.218;7.664;2023-02-23T08:26:56;26.23;;;16.83;;
63943;SDS011;50121;51.218;7.664;2023-02-23T08:29:24;29.20;;;18.33;;
63943;SDS011;50121;51.218;7.664;2023-02-23T08:31:52;25.85;;;16.88;;
63943;SDS011;50121;51.218;7.664;2023-02-23T08:34:20;30.42;;;18.45;;
63943;SDS011;50121;51.218;7.664;2023-02-23T08:36:48;24.20;;;16.80;;
63943;SDS011;50121;51.218;7.664;2023-02-23T08:39:15;26.00;;;17.38;;
63943;SDS011;50121;51.218;7.664;2023-02-23T08:41:44;28.08;;;17.75;;
63943;SDS011;50121;51.218;7.664;2023-02-23T08:44:11;29.55;;;18.70;;
63943;SDS011;50121;51.218;7.664;2023-02-23T08:46:39;26.77;;;17.73;;
63943;SDS011;50121;51.218;7.664;2023-02-23T08:49:06;26.40;;;16.98;;
63943;SDS011;50121;51.218;7.664;2023-02-23T08:51:37;28.35;;;17.25;;
63943;SDS011;50121;51.218;7.664;2023-02-23T08:54:07;27.02;;;17.92;;
63943;SDS011;50121;51.218;7.664;2023-02-23T08:56:40;23.77;;;15.95;;
63943;SDS011;50121;51.218;7.664;2023-02-23T08:59:08;27.42;;;17.38;;
63943;SDS011;50121;51.218;7.664;2023-02-23T09:01:35;24.17;;;16.00;;
63943;SDS011;50121;51.218;7.664;2023-02-23T09:04:04;22.70;;;15.43;;
63943;SDS011;50121;51.218;7.664;2023-02-23T09:06:32;24.80;;;16.10;;
63943;SDS011;50121;51.218;7.664;2023-02-23T09:09:00;25.27;;;16.02;;
63943;SDS011;50121;51.218;7.664;2023-02-23T09:11:28;22.13;;;15.05;;
63943;SDS011;50121;51.218;7.664;2023-02-23T09:13:56;25.00;;;16.10;;
63943;SDS011;50121;51.218;7.664;2023-02-23T09:16:23;27.58;;;16.77;;
63943;SDS011;50121;51.218;7.664;2023-02-23T09:18:51;25.50;;;15.60;;
63943;SDS011;50121;51.218;7.664;2023-02-23T09:21:19;28.05;;;24.05;;
63943;SDS011;50121;51.218;7.664;2023-02-23T09:23:50;29.45;;;24.35;;
63943;SDS011;50121;51.218;7.664;2023-02-23T09:26:22;21.98;;;15.07;;
63943;SDS011;50121;51.218;7.664;2023-02-23T09:28:50;23.85;;;15.85;;
63943;SDS011;50121;51.218;7.664;2023-02-23T09:31:19;22.63;;;14.75;;
63943;SDS011;50121;51.218;7.664;2023-02-23T09:33:48;25.65;;;16.17;;
63943;SDS011;50121;51.218;7.664;2023-02-23T09:36:18;26.23;;;15.57;;
63943;SDS011;50121;51.218;7.664;2023-02-23T09:38:47;25.65;;;16.45;;
63943;SDS011;50121;51.218;7.664;2023-02-23T09:44:01;24.88;;;16.45;;
63943;SDS011;50121;51.218;7.664;2023-02-23T09:46:45;27.75;;;17.20;;
63943;SDS011;50121;51.218;7.664;2023-02-23T09:49:17;26.15;;;15.73;;
63943;SDS011;50121;51.218;7.664;2023-02-23T09:51:46;25.33;;;16.60;;
63943;SDS011;50121;51.218;7.664;2023-02-23T09:54:15;26.33;;;15.55;;
63943;SDS011;50121;51.218;7.664;2023-02-23T09:56:47;25.50;;;15.85;;
63943;SDS011;50121;51.218;7.664;2023-02-23T09:59:17;24.97;;;15.97;;
63943;SDS011;50121;51.218;7.664;2023-02-23T10:04:21;25.83;;;15.75;;
63943;SDS011;50121;51.218;7.664;2023-02-23T10:20:44;19.88;;;12.60;;
63943;SDS011;50121;51.218;7.664;2023-02-23T10:23:14;19.25;;;12.65;;
63943;SDS011;50121;51.218;7.664;2023-02-23T10:25:47;23.15;;;12.43;;
63943;SDS011;50121;51.218;7.664;2023-02-23T10:28:18;24.15;;;14.10;;
63943;SDS011;50121;51.218;7.664;2023-02-23T10:30:47;25.02;;;14.50;;
63943;SDS011;50121;51.218;7.664;2023-02-23T10:35:51;28.17;;;15.13;;
63943;SDS011;50121;51.218;7.664;2023-02-23T10:38:36;23.45;;;14.20;;
63943;SDS011;50121;51.218;7.664;2023-02-23T10:41:04;27.98;;;15.23;;
63943;SDS011;50121;51.218;7.664;2023-02-23T10:43:32;28.13;;;15.23;;
63943;SDS011;50121;51.218;7.664;2023-02-23T10:45:59;29.33;;;15.93;;
63943;SDS011;50121;51.218;7.664;2023-02-23T10:48:28;30.58;;;16.80;;
63943;SDS011;50121;51.218;7.664;2023-02-23T10:50:58;30.73;;;17.08;;
63943;SDS011;50121;51.218;7.664;2023-02-23T10:53:32;28.52;;;16.42;;
63943;SDS011;50121;51.218;7.664;2023-02-23T10:56:12;30.02;;;15.52;;
63943;SDS011;50121;51.218;7.664;2023-02-23T10:58:41;27.05;;;15.43;;
63943;SDS011;50121;51.218;7.664;2023-02-23T11:01:10;30.60;;;15.93;;
63943;SDS011;50121;51.218;7.664;2023-02-23T11:03:41;30.77;;;16.33;;
63943;SDS011;50121;51.218;7.664;2023-02-23T11:06:28;28.27;;;16.50;;
63943;SDS011;50121;51.218;7.664;2023-02-23T11:08:56;27.77;;;15.98;;
63943;SDS011;50121;51.218;7.664;2023-02-23T11:11:27;27.35;;;15.60;;
63943;SDS011;50121;51.218;7.664;2023-02-23T11:13:55;31.00;;;16.77;;
63943;SDS011;50121;51.218;7.664;2023-02-23T11:16:24;29.38;;;16.45;;
63943;SDS011;50121;51.218;7.664;2023-02-23T11:19:00;31.15;;;16.65;;
63943;SDS011;50121;51.218;7.664;2023-02-23T11:21:32;30.90;;;17.73;;
63943;SDS011;50121;51.218;7.664;2023-02-23T11:24:21;31.30;;;17.90;;
63943;SDS011;50121;51.218;7.664;2023-02-23T11:26:51;38.17;;;18.42;;
63943;SDS011;50121;51.218;7.664;2023-02-23T11:29:30;33.13;;;16.95;;
63943;SDS011;50121;51.218;7.664;2023-02-23T11:31:59;34.67;;;18.10;;
63943;SDS011;50121;51.218;7.664;2023-02-23T11:34:36;34.42;;;18.13;;
63943;SDS011;50121;51.218;7.664;2023-02-23T11:37:17;34.25;;;17.88;;
63943;SDS011;50121;51.218;7.664;2023-02-23T11:39:52;34.15;;;17.88;;
63943;SDS011;50121;51.218;7.664;2023-02-23T11:42:29;31.13;;;16.98;;
63943;SDS011;50121;51.218;7.664;2023-02-23T11:45:05;32.55;;;16.67;;
63943;SDS011;50121;51.218;7.664;2023-02-23T11:47:33;28.25;;;15.77;;
63943;SDS011;50121;51.218;7.664;2023-02-23T11:50:05;30.23;;;16.75;;
63943;SDS011;50121;51.218;7.664;2023-02-23T11:52:33;32.22;;;17.40;;
63943;SDS011;50121;51.218;7.664;2023-02-23T11:55:05;31.00;;;16.48;;
63943;SDS011;50121;51.218;7.664;2023-02-23T11:57:34;31.23;;;17.17;;
63943;SDS011;50121;51.218;7.664;2023-02-23T12:00:11;29.20;;;16.00;;
63943;SDS011;50121;51.218;7.664;2023-02-23T12:02:46;27.85;;;15.73;;
63943;SDS011;50121;51.218;7.664;2023-02-23T12:05:16;28.08;;;16.38;;
63943;SDS011;50121;51.218;7.664;2023-02-23T12:10:20;28.25;;;15.40;;
63943;SDS011;50121;51.218;7.664;2023-02-23T12:18:19;30.48;;;15.90;;
63943;SDS011;50121;51.218;7.664;2023-02-23T12:20:50;27.35;;;16.42;;
63943;SDS011;50121;51.218;7.664;2023-02-23T12:23:21;31.77;;;17.05;;
63943;SDS011;50121;51.218;7.664;2023-02-23T12:25:53;31.27;;;17.23;;
63943;SDS011;50121;51.218;7.664;2023-02-23T12:28:25;30.30;;;16.35;;
63943;SDS011;50121;51.218;7.664;2023-02-23T12:30:57;32.78;;;16.95;;
63943;SDS011;50121;51.218;7.664;2023-02-23T12:33:29;29.17;;;16.27;;
63943;SDS011;50121;51.218;7.664;2023-02-23T12:36:04;33.05;;;17.15;;
63943;SDS011;50121;51.218;7.664;2023-02-23T12:41:11;29.90;;;16.70;;
63943;SDS011;50121;51.218;7.664;2023-02-23T12:43:41;30.92;;;17.45;;
63943;SDS011;50121;51.218;7.664;2023-02-23T12:46:20;33.55;;;16.83;;
63943;SDS011;50121;51.218;7.664;2023-02-23T12:48:59;34.88;;;18.92;;
63943;SDS011;50121;51.218;7.664;2023-02-23T12:53:56;39.28;;;19.67;;
63943;SDS011;50121;51.218;7.664;2023-02-23T12:59:02;39.75;;;18.63;;
63943;SDS011;50121;51.218;7.664;2023-02-23T13:01:52;39.92;;;17.98;;
63943;SDS011;50121;51.218;7.664;2023-02-23T13:22:44;49.97;;;20.20;;
63943;SDS011;50121;51.218;7.664;2023-02-23T13:27:45;53.25;;;19.30;;
63943;SDS011;50121;51.218;7.664;2023-02-23T13:30:14;53.70;;;20.55;;
63943;SDS011;50121;51.218;7.664;2023-02-23T13:32:41;58.67;;;22.02;;
63943;SDS011;50121;51.218;7.664;2023-02-23T13:35:13;49.80;;;20.33;;
63943;SDS011;50121;51.218;7.664;2023-02-23T13:37:43;49.50;;;20.02;;
63943;SDS011;50121;51.218;7.664;2023-02-23T13:40:15;46.75;;;18.85;;
63943;SDS011;50121;51.218;7.664;2023-02-23T13:47:59;48.78;;;20.63;;
63943;SDS011;50121;51.218;7.664;2023-02-23T13:50:30;47.40;;;20.95;;
63943;SDS011;50121;51.218;7.664;2023-02-23T13:53:06;47.50;;;20.50;;
63943;SDS011;50121;51.218;7.664;2023-02-23T13:58:25;46.88;;;18.23;;
63943;SDS011;50121;51.218;7.664;2023-02-23T14:01:02;46.15;;;17.38;;
63943;SDS011;50121;51.218;7.664;2023-02-23T14:03:31;59.35;;;23.45;;
63943;SDS011;50121;51.218;7.664;2023-02-23T14:06:04;47.77;;;20.13;;
63943;SDS011;50121;51.218;7.664;2023-02-23T14:08:34;45.08;;;18.92;;
63943;SDS011;50121;51.218;7.664;2023-02-23T14:11:04;53.65;;;20.73;;
63943;SDS011;50121;51.218;7.664;2023-02-23T14:13:44;45.63;;;19.02;;
63943;SDS011;50121;51.218;7.664;2023-02-23T14:16:23;49.60;;;20.08;;
63943;SDS011;50121;51.218;7.664;2023-02-23T14:19:06;46.40;;;19.25;;
63943;SDS011;50121;51.218;7.664;2023-02-23T14:21:42;48.85;;;19.70;;
63943;SDS011;50121;51.218;7.664;2023-02-23T14:27:18;53.05;;;20.55;;
63943;SDS011;50121;51.218;7.664;2023-02-23T14:29:37;60.25;;;24.30;;
63943;SDS011;50121;51.218;7.664;2023-02-23T14:34:53;94.18;;;22.45;;
63943;SDS011;50121;51.218;7.664;2023-02-23T14:37:30;210.60;;;24.20;;
63943;SDS011;50121;51.218;7.664;2023-02-23T14:42:38;153.77;;;20.27;;
63943;SDS011;50121;51.218;7.664;2023-02-23T14:45:15;108.07;;;19.98;;
63943;SDS011;50121;51.218;7.664;2023-02-23T14:47:47;110.43;;;18.80;;
63943;SDS011;50121;51.218;7.664;2023-02-23T14:50:22;57.65;;;18.85;;
63943;SDS011;50121;51.218;7.664;2023-02-23T14:52:50;70.78;;;18.60;;
63943;SDS011;50121;51.218;7.664;2023-02-23T14:55:24;76.00;;;18.27;;
63943;SDS011;50121;51.218;7.664;2023-02-23T14:57:54;75.80;;;20.48;;
63943;SDS011;50121;51.218;7.664;2023-02-23T15:02:52;85.93;;;18.92;;
63943;SDS011;50121;51.218;7.664;2023-02-23T15:05:22;46.30;;;14.25;;
63943;SDS011;50121;51.218;7.664;2023-02-23T15:07:50;102.20;;;17.95;;
63943;SDS011;50121;51.218;7.664;2023-02-23T15:10:28;118.35;;;19.55;;
63943;SDS011;50121;51.218;7.664;2023-02-23T15:12:56;94.15;;;18.42;;
63943;SDS011;50121;51.218;7.664;2023-02-23T15:15:25;56.40;;;16.38;;
63943;SDS011;50121;51.218;7.664;2023-02-23T15:17:54;63.05;;;16.25;;
63943;SDS011;50121;51.218;7.664;2023-02-23T15:20:23;61.63;;;18.23;;
63943;SDS011;50121;51.218;7.664;2023-02-23T15:22:55;46.80;;;15.90;;
63943;SDS011;50121;51.218;7.664;2023-02-23T15:25:31;34.38;;;14.40;;
63943;SDS011;50121;51.218;7.664;2023-02-23T15:28:08;38.20;;;14.90;;
63943;SDS011;50121;51.218;7.664;2023-02-23T15:30:43;38.13;;;16.67;;
63943;SDS011;50121;51.218;7.664;2023-02-23T15:33:11;40.40;;;17.23;;
63943;SDS011;50121;51.218;7.664;2023-02-23T15:35:40;45.20;;;17.50;;
63943;SDS011;50121;51.218;7.664;2023-02-23T15:38:10;47.65;;;17.63;;
63943;SDS011;50121;51.218;7.664;2023-02-23T15:41:04;42.90;;;18.30;;
63943;SDS011;50121;51.218;7.664;2023-02-23T15:43:33;47.50;;;18.55;;
63943;SDS011;50121;51.218;7.664;2023-02-23T15:46:02;107.95;;;19.25;;
63943;SDS011;50121;51.218;7.664;2023-02-23T15:48:44;66.95;;;16.90;;
63943;SDS011;50121;51.218;7.664;2023-02-23T15:51:21;52.95;;;16.10;;
63943;SDS011;50121;51.218;7.664;2023-02-23T15:53:51;77.93;;;18.67;;
63943;SDS011;50121;51.218;7.664;2023-02-23T15:56:26;47.65;;;18.52;;
63943;SDS011;50121;51.218;7.664;2023-02-23T15:58:56;57.65;;;17.30;;
63943;SDS011;50121;51.218;7.664;2023-02-23T16:01:28;54.83;;;16.55;;
63943;SDS011;50121;51.218;7.664;2023-02-23T16:04:06;40.40;;;17.02;;
63943;SDS011;50121;51.218;7.664;2023-02-23T16:11:47;29.42;;;13.68;;
63943;SDS011;50121;51.218;7.664;2023-02-23T16:14:16;29.65;;;13.82;;
63943;SDS011;50121;51.218;7.664;2023-02-23T16:16:46;31.15;;;13.20;;
63943;SDS011;50121;51.218;7.664;2023-02-23T16:19:26;30.88;;;14.15;;
63943;SDS011;50121;51.218;7.664;2023-02-23T16:21:56;32.90;;;14.32;;
63943;SDS011;50121;51.218;7.664;2023-02-23T16:24:27;33.35;;;14.68;;
63943;SDS011;50121;51.218;7.664;2023-02-23T16:26:56;32.85;;;14.35;;
63943;SDS011;50121;51.218;7.664;2023-02-23T16:29:29;28.73;;;12.55;;
63943;SDS011;50121;51.218;7.664;2023-02-23T16:32:00;31.10;;;13.93;;
63943;SDS011;50121;51.218;7.664;2023-02-23T16:34:32;29.05;;;13.27;;
63943;SDS011;50121;51.218;7.664;2023-02-23T16:37:17;28.25;;;14.45;;
63943;SDS011;50121;51.218;7.664;2023-02-23T16:39:48;26.15;;;13.23;;
63943;SDS011;50121;51.218;7.664;2023-02-23T16:44:48;29.17;;;14.93;;
63943;SDS011;50121;51.218;7.664;2023-02-23T16:49:49;30.05;;;14.52;;
63943;SDS011;50121;51.218;7.664;2023-02-23T16:52:18;32.05;;;14.48;;